Time;durP1;ratioP1;P1;durP2;ratioP2;P2;SDS_P1;SDS_P2;PMS_P1;PMS_P2;Temp;Humidity;BMP_temperature;BMP_pressure;BME280_temperature;BME280_humidity;BME280_pressure;Samples;Min_cycle;Max_cycle;Signal;HPM_P1;HPM_P2
2022/02/17 00:01:45;;;;;;;1.10;0.50;;;12.90;99.90;;;;;;5056857;28;20448;-74
2022/02/17 00:04:32;;;;;;;1.70;0.43;;;12.90;99.90;;;;;;5060608;28;20425;-74
2022/02/17 00:07:18;;;;;;;2.90;0.57;;;12.90;99.90;;;;;;5061125;28;20416;-73
2022/02/17 00:10:04;;;;;;;1.17;0.53;;;12.80;99.90;;;;;;5061730;28;20902;-73
2022/02/17 00:12:50;;;;;;;1.30;0.50;;;12.80;99.90;;;;;;5061908;28;20447;-74
2022/02/17 00:15:36;;;;;;;1.10;0.50;;;12.80;99.90;;;;;;5062825;28;20474;-74
2022/02/17 00:18:22;;;;;;;1.20;0.50;;;12.80;99.90;;;;;;5063010;28;20949;-74
2022/02/17 00:21:09;;;;;;;1.17;0.50;;;12.80;99.90;;;;;;5066014;28;20537;-73
2022/02/17 00:23:55;;;;;;;2.07;0.60;;;12.80;99.90;;;;;;5061876;28;20528;-73
2022/02/17 00:26:41;;;;;;;1.50;0.60;;;12.80;99.90;;;;;;5060743;28;20535;-73
2022/02/17 00:29:27;;;;;;;1.27;0.47;;;12.80;99.90;;;;;;5060365;28;20425;-74
2022/02/17 00:32:12;;;;;;;1.30;0.60;;;12.80;99.90;;;;;;5058058;28;20512;-74
2022/02/17 00:34:58;;;;;;;1.70;0.53;;;12.80;99.90;;;;;;5061648;28;20490;-74
2022/02/17 00:37:45;;;;;;;1.20;0.50;;;12.80;99.90;;;;;;5063004;28;20429;-74
2022/02/17 00:40:31;;;;;;;1.30;0.60;;;12.80;99.90;;;;;;5061846;28;20484;-75
2022/02/17 00:43:16;;;;;;;1.27;0.47;;;12.70;99.90;;;;;;5059275;28;20786;-74
2022/02/17 00:46:02;;;;;;;1.10;0.50;;;12.80;99.90;;;;;;5059995;28;20412;-74
2022/02/17 00:48:48;;;;;;;1.40;0.60;;;12.80;99.90;;;;;;5061718;28;20531;-73
2022/02/17 00:51:34;;;;;;;1.77;0.70;;;12.80;99.90;;;;;;5062590;28;20498;-73
2022/02/17 00:54:22;;;;;;;3.10;0.57;;;12.80;99.90;;;;;;5061874;28;20445;-74
2022/02/17 00:57:07;;;;;;;1.73;0.70;;;12.80;99.90;;;;;;5059539;28;20808;-74
2022/02/17 00:59:53;;;;;;;1.30;0.60;;;12.90;99.90;;;;;;5060939;28;20463;-73
2022/02/17 01:02:39;;;;;;;1.73;0.50;;;12.90;99.90;;;;;;5061899;28;20466;-74
2022/02/17 01:05:25;;;;;;;1.50;0.73;;;12.90;99.90;;;;;;5063581;28;20563;-73
2022/02/17 01:08:11;;;;;;;1.17;0.50;;;12.90;99.90;;;;;;5061436;28;20484;-74
2022/02/17 01:10:58;;;;;;;1.20;0.50;;;12.80;99.90;;;;;;5061165;28;20486;-74
2022/02/17 01:13:44;;;;;;;1.30;0.60;;;12.80;99.90;;;;;;5059116;28;20443;-74
2022/02/17 01:16:29;;;;;;;1.23;0.60;;;12.80;99.90;;;;;;5060451;28;20633;-74
2022/02/17 01:19:15;;;;;;;3.10;0.60;;;12.80;99.90;;;;;;5060996;28;20417;-74
2022/02/17 01:22:01;;;;;;;1.70;0.60;;;12.80;99.90;;;;;;5060912;28;20604;-72
2022/02/17 01:24:46;;;;;;;1.20;0.53;;;12.80;99.90;;;;;;5061387;28;20442;-72
2022/02/17 01:27:33;;;;;;;1.30;0.60;;;12.80;99.90;;;;;;5060885;28;20996;-73
2022/02/17 01:30:19;;;;;;;1.30;0.57;;;12.80;99.90;;;;;;5059264;28;20906;-72
2022/02/17 01:33:05;;;;;;;1.97;0.50;;;12.80;99.90;;;;;;5060271;28;20605;-72
2022/02/17 01:35:51;;;;;;;1.50;0.50;;;12.80;99.90;;;;;;5062751;28;20463;-72
2022/02/17 01:38:37;;;;;;;1.90;0.50;;;12.90;99.90;;;;;;5061053;28;20425;-72
2022/02/17 01:41:23;;;;;;;1.20;0.60;;;12.80;99.90;;;;;;5062597;28;21018;-72
2022/02/17 01:44:11;;;;;;;1.20;0.50;;;12.90;99.90;;;;;;5062335;28;21010;-72
2022/02/17 01:46:56;;;;;;;1.33;0.50;;;12.90;99.90;;;;;;5063813;28;20429;-72
2022/02/17 01:49:44;;;;;;;1.17;0.53;;;12.90;99.90;;;;;;5062147;28;20476;-72
2022/02/17 01:52:30;;;;;;;1.50;0.77;;;12.90;99.90;;;;;;5063023;28;20444;-73
2022/02/17 01:55:15;;;;;;;1.13;0.50;;;12.90;99.90;;;;;;5061901;28;20997;-73
2022/02/17 01:58:01;;;;;;;1.73;0.53;;;12.90;99.90;;;;;;5061682;28;20454;-73
2022/02/17 02:00:49;;;;;;;1.20;0.50;;;12.90;99.90;;;;;;5063997;28;20523;-73
2022/02/17 02:03:34;;;;;;;1.10;0.40;;;12.90;99.90;;;;;;5061653;28;20413;-72
2022/02/17 02:06:20;;;;;;;1.17;0.43;;;13.00;99.90;;;;;;5062019;28;20450;-72
2022/02/17 02:09:07;;;;;;;1.53;0.43;;;12.90;99.90;;;;;;5062766;28;20890;-72
2022/02/17 02:11:53;;;;;;;1.20;0.50;;;13.00;99.90;;;;;;5062318;28;21394;-73
2022/02/17 02:14:50;;;;;;;1.40;0.43;;;13.00;99.90;;;;;;5063367;28;20498;-73
2022/02/17 02:17:38;;;;;;;1.53;0.67;;;13.00;99.90;;;;;;5061243;28;20474;-73
2022/02/17 02:20:25;;;;;;;1.20;0.50;;;13.00;99.90;;;;;;5061802;28;20466;-73
2022/02/17 02:23:11;;;;;;;1.30;0.57;;;13.00;99.90;;;;;;5061724;28;20417;-73
2022/02/17 02:25:56;;;;;;;1.10;0.40;;;13.10;99.90;;;;;;5061748;28;20513;-73
2022/02/17 02:28:42;;;;;;;1.30;0.70;;;13.10;99.90;;;;;;5061494;28;21069;-73
2022/02/17 02:31:28;;;;;;;2.63;0.70;;;13.00;99.90;;;;;;5061882;28;20621;-73
2022/02/17 02:34:14;;;;;;;1.87;0.50;;;13.10;99.90;;;;;;5062433;28;20446;-73
2022/02/17 02:37:01;;;;;;;1.10;0.40;;;13.10;99.90;;;;;;5059038;28;20458;-73
2022/02/17 02:39:47;;;;;;;1.27;0.40;;;13.10;99.90;;;;;;5059638;28;20446;-73
2022/02/17 02:42:32;;;;;;;1.30;0.60;;;13.10;99.90;;;;;;5059928;28;20477;-73
2022/02/17 02:45:18;;;;;;;1.17;0.50;;;13.20;99.90;;;;;;5058927;28;20938;-73
2022/02/17 02:48:09;;;;;;;1.53;0.60;;;13.20;99.90;;;;;;5061479;28;21197;-73
2022/02/17 02:50:54;;;;;;;1.50;0.50;;;13.30;99.90;;;;;;5062985;28;20468;-73
2022/02/17 02:53:42;;;;;;;1.20;0.53;;;13.40;99.90;;;;;;5061716;28;20457;-73
2022/02/17 02:56:28;;;;;;;1.10;0.40;;;13.40;99.90;;;;;;5061669;28;20665;-73
2022/02/17 02:59:13;;;;;;;1.10;0.50;;;13.50;99.90;;;;;;5060144;28;20482;-73
2022/02/17 03:01:59;;;;;;;1.20;0.50;;;13.50;99.90;;;;;;5059552;28;20962;-73
2022/02/17 03:04:44;;;;;;;1.20;0.50;;;13.50;99.90;;;;;;5058702;28;20582;-73
2022/02/17 03:07:30;;;;;;;1.40;0.50;;;13.50;99.90;;;;;;5060091;28;20409;-73
2022/02/17 03:10:17;;;;;;;1.10;0.40;;;13.50;99.90;;;;;;5058207;28;20420;-73
2022/02/17 03:13:04;;;;;;;1.53;0.60;;;13.60;99.90;;;;;;5057536;28;21030;-73
2022/02/17 03:15:49;;;;;;;2.53;0.50;;;13.50;99.90;;;;;;5061109;28;20443;-73
2022/02/17 03:18:35;;;;;;;1.60;0.60;;;13.50;99.90;;;;;;5058988;28;20454;-73
2022/02/17 03:21:21;;;;;;;5.53;1.10;;;13.40;99.90;;;;;;5059094;28;20462;-73
2022/02/17 03:24:07;;;;;;;1.10;0.47;;;13.40;99.90;;;;;;5058964;28;20453;-73
2022/02/17 03:26:54;;;;;;;1.97;0.70;;;13.40;99.90;;;;;;5059570;28;20398;-73
2022/02/17 03:29:40;;;;;;;1.50;0.50;;;13.50;99.90;;;;;;5061196;28;20504;-73
2022/02/17 03:32:25;;;;;;;1.67;0.60;;;13.50;99.90;;;;;;5062143;28;20575;-72
2022/02/17 03:35:11;;;;;;;2.43;0.70;;;13.60;99.90;;;;;;5061908;28;20563;-72
2022/02/17 03:37:57;;;;;;;1.30;0.57;;;13.70;99.90;;;;;;5061438;28;20502;-73
2022/02/17 03:40:42;;;;;;;4.70;0.60;;;13.80;99.90;;;;;;5061958;28;20886;-73
2022/02/17 03:43:30;;;;;;;1.87;0.70;;;13.90;99.90;;;;;;5066401;28;20798;-73
2022/02/17 03:46:15;;;;;;;1.47;0.50;;;13.90;99.90;;;;;;5065418;28;20531;-72
2022/02/17 03:49:01;;;;;;;4.90;0.70;;;14.00;99.90;;;;;;5064823;28;21233;-72
2022/02/17 03:51:47;;;;;;;2.23;0.83;;;13.90;99.90;;;;;;5065932;28;20467;-73
2022/02/17 03:54:32;;;;;;;1.30;0.50;;;13.90;99.90;;;;;;5064142;28;20991;-72
2022/02/17 03:57:18;;;;;;;1.50;0.70;;;13.90;99.90;;;;;;5062463;28;20512;-73
2022/02/17 04:00:08;;;;;;;3.00;0.50;;;13.90;99.90;;;;;;5062647;28;20550;-72
2022/02/17 04:02:53;;;;;;;1.67;0.57;;;13.90;99.90;;;;;;5064193;28;20515;-73
2022/02/17 04:05:39;;;;;;;1.30;0.60;;;13.90;99.90;;;;;;5067300;28;20460;-73
2022/02/17 04:08:25;;;;;;;1.30;0.50;;;13.80;99.90;;;;;;5066556;28;21766;-73
2022/02/17 04:11:11;;;;;;;3.10;1.13;;;13.80;99.90;;;;;;5064631;28;20445;-72
2022/02/17 04:13:57;;;;;;;2.73;0.80;;;13.80;99.90;;;;;;5063715;28;20429;-73
2022/02/17 04:16:44;;;;;;;1.90;0.70;;;13.80;99.90;;;;;;5062636;28;20433;-73
2022/02/17 04:19:30;;;;;;;1.47;0.60;;;13.80;99.90;;;;;;5061029;28;20416;-73
2022/02/17 04:22:17;;;;;;;2.70;0.73;;;13.80;99.90;;;;;;5062860;28;20456;-73
2022/02/17 04:25:02;;;;;;;1.40;0.70;;;13.70;99.90;;;;;;5061853;28;20442;-73
2022/02/17 04:27:48;;;;;;;2.53;0.97;;;13.70;99.90;;;;;;5059912;28;21027;-73
2022/02/17 04:30:34;;;;;;;7.33;1.03;;;13.70;99.90;;;;;;5062010;28;20423;-73
2022/02/17 04:33:21;;;;;;;2.37;0.83;;;13.70;99.90;;;;;;5062128;28;20520;-73
2022/02/17 04:36:07;;;;;;;1.80;0.90;;;13.60;99.90;;;;;;5063183;28;20815;-73
2022/02/17 04:38:53;;;;;;;6.40;1.10;;;13.60;99.90;;;;;;5062587;28;20430;-73
2022/02/17 04:44:42;;;;;;;3.50;0.90;;;13.50;99.90;;;;;;5063868;28;20492;-73
2022/02/17 04:47:28;;;;;;;4.57;1.20;;;13.40;99.90;;;;;;5063753;28;20492;-73
2022/02/17 04:50:15;;;;;;;3.70;1.30;;;13.40;99.90;;;;;;5064701;28;20463;-72
2022/02/17 04:53:01;;;;;;;4.37;1.40;;;13.30;99.90;;;;;;5062816;28;20952;-73
2022/02/17 04:55:46;;;;;;;7.80;1.20;;;13.20;99.90;;;;;;5062808;28;20446;-73
2022/02/17 04:58:32;;;;;;;4.53;1.30;;;13.20;99.90;;;;;;5063090;28;20593;-73
2022/02/17 05:01:18;;;;;;;5.70;1.10;;;13.10;99.90;;;;;;5060317;28;20554;-73
2022/02/17 05:04:03;;;;;;;6.53;2.23;;;13.00;99.90;;;;;;5063916;28;21080;-72
2022/02/17 05:06:50;;;;;;;7.77;1.20;;;13.00;99.90;;;;;;5066077;28;20405;-73
2022/02/17 05:09:36;;;;;;;4.23;1.47;;;12.90;99.90;;;;;;5063028;28;20545;-73
2022/02/17 05:12:21;;;;;;;3.97;1.40;;;12.90;99.90;;;;;;5063636;28;20466;-72
2022/02/17 05:15:08;;;;;;;4.00;1.77;;;12.80;99.90;;;;;;5056468;28;20535;-72
2022/02/17 05:17:54;;;;;;;9.07;2.40;;;12.80;99.90;;;;;;5061037;28;20474;-72
2022/02/17 05:20:40;;;;;;;5.50;1.73;;;12.80;99.90;;;;;;5061926;28;20420;-72
2022/02/17 05:23:27;;;;;;;6.57;1.87;;;12.70;99.90;;;;;;5062358;28;20565;-72
2022/02/17 05:26:13;;;;;;;7.17;1.60;;;12.70;99.90;;;;;;5063786;28;20925;-73
2022/02/17 05:28:59;;;;;;;9.33;1.77;;;12.70;99.90;;;;;;5063366;28;20963;-72
2022/02/17 05:31:45;;;;;;;5.87;1.80;;;12.60;99.90;;;;;;5064342;28;20506;-73
2022/02/17 05:34:30;;;;;;;9.63;2.17;;;12.60;94.00;;;;;;5063768;28;20488;-72
2022/02/17 05:37:16;;;;;;;15.60;2.87;;;12.50;85.40;;;;;;5061973;28;20920;-72
2022/02/17 05:40:04;;;;;;;8.73;2.10;;;12.50;85.50;;;;;;5061370;28;20428;-72
2022/02/17 05:42:50;;;;;;;12.20;2.50;;;12.40;78.30;;;;;;5061510;28;21067;-72
2022/02/17 05:45:36;;;;;;;8.87;2.67;;;12.40;76.60;;;;;;5060168;28;20953;-73
2022/02/17 05:48:21;;;;;;;10.97;2.40;;;12.30;74.20;;;;;;5059119;28;20466;-73
2022/02/17 05:51:07;;;;;;;12.07;2.97;;;12.30;70.90;;;;;;5061155;28;20437;-72
2022/02/17 05:53:53;;;;;;;11.57;2.13;;;12.20;70.20;;;;;;5059179;28;20423;-72
2022/02/17 05:56:40;;;;;;;16.53;2.80;;;12.20;68.00;;;;;;5059738;28;20944;-72
2022/02/17 05:59:26;;;;;;;10.87;2.27;;;12.20;68.10;;;;;;5066036;28;20436;-72
2022/02/17 06:02:11;;;;;;;6.03;2.30;;;12.10;66.60;;;;;;5062169;28;20668;-72
2022/02/17 06:04:57;;;;;;;7.50;2.10;;;12.10;67.00;;;;;;5062666;28;20445;-72
2022/02/17 06:07:42;;;;;;;7.40;2.20;;;12.00;68.00;;;;;;5061812;28;20452;-73
2022/02/17 06:10:28;;;;;;;14.40;3.20;;;12.00;66.20;;;;;;5061339;28;20488;-72
2022/02/17 06:13:15;;;;;;;10.90;2.90;;;12.00;66.30;;;;;;5063923;28;20409;-73
2022/02/17 06:16:01;;;;;;;17.07;3.90;;;11.90;66.30;;;;;;5062827;28;20424;-72
2022/02/17 06:18:46;;;;;;;12.40;2.27;;;11.90;65.60;;;;;;5060420;28;20515;-72
2022/02/17 06:21:32;;;;;;;14.67;3.83;;;11.90;67.20;;;;;;5060073;28;20893;-72
2022/02/17 06:24:18;;;;;;;22.33;3.30;;;11.80;67.50;;;;;;5058995;28;20934;-73
2022/02/17 06:27:04;;;;;;;12.40;2.40;;;11.80;68.30;;;;;;5058855;28;20448;-73
2022/02/17 06:29:51;;;;;;;21.40;3.47;;;11.80;69.90;;;;;;5062496;28;20428;-72
2022/02/17 06:32:44;;;;;;;11.40;2.73;;;11.70;71.60;;;;;;5060221;28;20458;-72
2022/02/17 06:35:33;;;;;;;19.27;3.73;;;11.80;73.60;;;;;;5059175;28;20423;-73
2022/02/17 06:38:19;;;;;;;13.63;3.57;;;11.70;73.50;;;;;;5060679;28;20478;-72
2022/02/17 06:41:04;;;;;;;17.10;6.47;;;11.80;75.10;;;;;;5062901;28;20444;-72
2022/02/17 06:43:50;;;;;;;12.03;4.10;;;11.80;75.70;;;;;;5061895;28;20447;-72
2022/02/17 06:46:37;;;;;;;16.60;3.73;;;11.80;76.40;;;;;;5062145;28;20420;-72
2022/02/17 06:49:23;;;;;;;17.27;4.70;;;11.80;79.20;;;;;;5068284;28;20812;-72
2022/02/17 06:52:09;;;;;;;18.27;3.90;;;11.70;79.30;;;;;;5062212;28;20518;-72
2022/02/17 06:54:54;;;;;;;22.43;4.03;;;11.70;81.40;;;;;;5062617;28;20560;-72
2022/02/17 06:57:40;;;;;;;16.93;4.57;;;11.70;82.90;;;;;;5060020;28;20493;-73
2022/02/17 07:00:27;;;;;;;20.10;4.70;;;11.70;83.60;;;;;;5060307;28;20896;-72
2022/02/17 07:03:14;;;;;;;11.00;3.77;;;11.70;86.10;;;;;;5059997;28;20424;-72
2022/02/17 07:06:01;;;;;;;12.63;3.40;;;11.70;88.50;;;;;;5059335;28;21041;-72
2022/02/17 07:08:47;;;;;;;22.43;8.00;;;11.70;88.50;;;;;;5058715;28;20409;-73
2022/02/17 07:11:33;;;;;;;25.63;9.80;;;11.70;90.10;;;;;;5059228;28;20534;-73
2022/02/17 07:14:20;;;;;;;24.63;6.83;;;11.70;90.10;;;;;;5058357;28;20976;-72
2022/02/17 07:17:06;;;;;;;20.63;4.37;;;11.70;90.50;;;;;;5061111;28;21010;-73
2022/02/17 07:19:53;;;;;;;25.27;9.70;;;11.70;90.80;;;;;;5060122;28;20425;-72
2022/02/17 07:22:39;;;;;;;25.87;8.80;;;11.70;91.10;;;;;;5077568;22;20490;-74
2022/02/17 07:25:25;;;;;;;16.00;4.60;;;11.70;91.70;;;;;;5061125;28;20434;-73
2022/02/17 07:28:11;;;;;;;13.37;3.23;;;11.70;92.10;;;;;;5057283;28;20409;-72
2022/02/17 07:30:57;;;;;;;15.17;4.77;;;11.80;92.00;;;;;;5059544;28;20417;-75
2022/02/17 07:33:42;;;;;;;14.50;3.87;;;11.70;92.40;;;;;;5059981;28;20472;-74
2022/02/17 07:36:30;;;;;;;17.40;4.30;;;11.80;93.00;;;;;;5058213;28;20956;-74
2022/02/17 07:39:15;;;;;;;21.20;4.43;;;11.80;93.70;;;;;;5058674;28;20459;-73
2022/02/17 07:42:01;;;;;;;20.83;3.80;;;11.80;93.50;;;;;;5057163;28;20444;-74
2022/02/17 07:44:47;;;;;;;12.60;3.00;;;11.80;94.90;;;;;;5059050;28;20446;-75
2022/02/17 07:47:32;;;;;;;12.93;4.47;;;11.70;95.00;;;;;;5059208;28;20702;-74
2022/02/17 07:50:19;;;;;;;14.73;3.50;;;11.70;97.20;;;;;;5061033;28;20532;-74
2022/02/17 07:53:06;;;;;;;18.07;3.50;;;11.70;97.50;;;;;;5063258;28;20464;-74
2022/02/17 07:55:52;;;;;;;20.10;3.60;;;11.70;98.90;;;;;;5061186;28;20497;-74
2022/02/17 07:58:38;;;;;;;20.73;3.63;;;11.60;99.50;;;;;;5058994;28;20480;-73
2022/02/17 08:01:24;;;;;;;10.50;2.53;;;11.60;99.90;;;;;;5062219;28;20807;-74
2022/02/17 08:04:10;;;;;;;17.70;3.80;;;11.50;99.90;;;;;;5058197;28;20483;-74
2022/02/17 08:06:56;;;;;;;24.77;5.33;;;11.40;99.90;;;;;;5060521;28;20444;-74
2022/02/17 08:09:43;;;;;;;18.70;4.40;;;11.20;99.90;;;;;;5061958;28;20926;-74
2022/02/17 08:12:29;;;;;;;6.97;2.53;;;11.10;99.90;;;;;;5059131;28;20994;-73
2022/02/17 08:15:14;;;;;;;15.90;5.80;;;11.00;99.90;;;;;;5061250;28;20910;-74
2022/02/17 08:18:00;;;;;;;15.43;4.50;;;11.00;99.90;;;;;;5059313;28;20508;-74
2022/02/17 08:20:46;;;;;;;17.90;3.90;;;10.90;99.90;;;;;;5061010;28;20450;-74
2022/02/17 08:23:33;;;;;;;17.83;3.80;;;11.00;99.90;;;;;;5061956;28;20579;-74
2022/02/17 08:26:20;;;;;;;30.67;9.43;;;11.10;99.90;;;;;;5058981;28;20438;-73
2022/02/17 08:29:06;;;;;;;17.60;5.13;;;11.10;99.90;;;;;;5062518;28;20567;-74
2022/02/17 08:31:52;;;;;;;12.17;4.30;;;11.20;99.90;;;;;;5062213;28;20499;-73
2022/02/17 08:34:38;;;;;;;22.20;3.90;;;11.30;99.90;;;;;;5059566;28;20846;-74
2022/02/17 08:37:24;;;;;;;14.20;3.70;;;11.40;99.90;;;;;;5059350;28;20465;-75
2022/02/17 08:40:11;;;;;;;17.23;3.60;;;11.40;99.90;;;;;;5062154;28;20432;-73
2022/02/17 08:43:08;;;;;;;16.13;4.60;;;11.50;99.90;;;;;;5061549;28;20490;-72
2022/02/17 08:45:53;;;;;;;19.97;3.97;;;11.60;99.90;;;;;;5060725;28;20528;-73
2022/02/17 08:48:40;;;;;;;15.07;2.97;;;11.70;99.90;;;;;;5063918;28;20421;-75
2022/02/17 08:51:29;;;;;;;19.90;5.27;;;11.80;99.90;;;;;;5062205;28;20910;-73
2022/02/17 08:54:15;;;;;;;21.80;4.13;;;11.80;99.90;;;;;;5063249;28;20457;-75
2022/02/17 08:57:01;;;;;;;22.60;3.80;;;11.80;99.90;;;;;;5059914;28;20946;-72
2022/02/17 08:59:47;;;;;;;29.90;4.77;;;11.70;99.80;;;;;;5062548;28;20413;-72
2022/02/17 09:02:33;;;;;;;22.57;4.80;;;11.70;99.90;;;;;;5062629;28;20470;-75
2022/02/17 09:05:19;;;;;;;16.40;3.87;;;11.70;99.90;;;;;;5062754;28;20451;-75
2022/02/17 09:08:05;;;;;;;22.33;5.60;;;11.70;99.90;;;;;;5063694;28;21007;-74
2022/02/17 09:10:51;;;;;;;28.00;7.50;;;11.80;99.00;;;;;;5062576;28;20542;-73
2022/02/17 09:13:37;;;;;;;32.00;4.57;;;11.70;98.00;;;;;;5060843;28;20445;-75
2022/02/17 09:16:24;;;;;;;17.03;3.97;;;11.70;96.30;;;;;;5060825;28;20938;-75
2022/02/17 09:19:10;;;;;;;27.33;4.93;;;11.70;96.40;;;;;;5061666;28;20506;-76
2022/02/17 09:21:58;;;;;;;14.50;4.37;;;11.70;96.50;;;;;;5060240;28;20482;-73
2022/02/17 09:24:43;;;;;;;28.50;6.00;;;11.70;95.70;;;;;;5068762;28;20973;-74
2022/02/17 09:27:29;;;;;;;18.00;4.77;;;11.70;96.90;;;;;;5066764;28;21076;-74
2022/02/17 09:30:15;;;;;;;25.17;4.80;;;11.70;95.10;;;;;;5065443;28;20977;-74
2022/02/17 09:33:02;;;;;;;25.77;3.83;;;11.90;95.00;;;;;;5068113;28;20518;-74
2022/02/17 09:35:48;;;;;;;16.53;3.87;;;11.90;93.30;;;;;;5060797;28;20497;-72
2022/02/17 09:38:33;;;;;;;21.60;4.03;;;12.00;92.40;;;;;;5066716;28;20493;-75
2022/02/17 09:41:20;;;;;;;15.97;5.30;;;12.00;91.10;;;;;;5066395;28;20437;-75
2022/02/17 09:44:08;;;;;;;18.40;4.13;;;12.00;91.70;;;;;;5065479;28;20470;-74
2022/02/17 09:46:54;;;;;;;23.77;4.30;;;11.90;92.20;;;;;;5064963;28;20432;-74
2022/02/17 09:49:42;;;;;;;23.63;5.03;;;11.90;92.30;;;;;;5064314;28;20944;-74
2022/02/17 09:52:30;;;;;;;19.00;4.30;;;11.90;92.40;;;;;;5067212;28;20493;-74
2022/02/17 09:55:16;;;;;;;31.23;4.30;;;11.80;92.60;;;;;;5069088;28;20541;-74
2022/02/17 09:58:02;;;;;;;30.97;4.93;;;11.70;94.40;;;;;;5068093;28;20988;-74
2022/02/17 10:00:48;;;;;;;12.07;3.67;;;11.60;94.20;;;;;;5069450;28;20442;-75
2022/02/17 10:03:36;;;;;;;26.37;4.70;;;11.60;94.80;;;;;;5066462;28;20430;-75
2022/02/17 10:06:24;;;;;;;16.83;4.60;;;11.60;96.00;;;;;;5071307;28;20418;-74
2022/02/17 10:09:10;;;;;;;23.33;5.00;;;11.60;95.80;;;;;;5063872;28;20457;-73
2022/02/17 10:11:56;;;;;;;28.23;5.97;;;11.60;96.40;;;;;;5071901;28;20545;-75
2022/02/17 10:14:43;;;;;;;27.33;6.77;;;11.60;96.20;;;;;;5065908;28;20421;-74
2022/02/17 10:17:29;;;;;;;23.40;6.33;;;11.60;96.10;;;;;;5068540;28;20409;-74
2022/02/17 10:20:15;;;;;;;40.93;5.50;;;11.60;96.20;;;;;;5071866;28;20510;-75
2022/02/17 10:23:08;;;;;;;30.27;7.33;;;11.60;96.40;;;;;;5065112;28;20464;-74
2022/02/17 10:26:03;;;;;;;20.70;4.87;;;11.60;99.90;;;;;;5065313;28;20812;-74
2022/02/17 10:28:54;;;;;;;17.10;4.77;;;11.50;99.90;;;;;;5069374;28;20397;-75
2022/02/17 10:31:40;;;;;;;24.53;4.73;;;11.30;99.90;;;;;;5067229;28;20448;-74
2022/02/17 10:34:26;;;;;;;25.13;3.40;;;11.40;99.90;;;;;;5070449;28;21380;-75
2022/02/17 10:37:12;;;;;;;17.00;4.73;;;11.20;99.90;;;;;;5067204;28;20423;-74
2022/02/17 10:40:16;;;;;;;19.67;4.23;;;11.20;99.90;;;;;;5071442;28;20477;-74
2022/02/17 10:43:03;;;;;;;30.87;6.20;;;11.40;99.90;;;;;;5067692;28;20439;-74
2022/02/17 10:45:51;;;;;;;23.73;5.37;;;11.60;99.90;;;;;;5067759;28;20509;-75
2022/02/17 10:48:37;;;;;;;18.60;3.57;;;11.90;99.90;;;;;;5069980;28;20413;-74
2022/02/17 10:51:23;;;;;;;23.23;4.57;;;12.10;99.90;;;;;;5069726;28;20475;-75
2022/02/17 10:54:09;;;;;;;28.77;5.73;;;12.20;99.90;;;;;;5069249;28;20424;-75
2022/02/17 10:57:03;;;;;;;39.17;5.17;;;12.20;99.90;;;;;;5065689;28;20606;-75
2022/02/17 11:00:04;;;;;;;21.53;4.67;;;12.10;99.90;;;;;;5062285;28;20467;-74
2022/02/17 11:02:52;;;;;;;32.73;6.10;;;12.00;99.80;;;;;;5065684;28;20447;-74
2022/02/17 11:05:39;;;;;;;34.00;5.23;;;11.90;99.90;;;;;;5061477;28;20436;-75
2022/02/17 11:08:25;;;;;;;18.60;4.33;;;11.80;99.90;;;;;;5069365;28;20416;-74
2022/02/17 11:11:13;;;;;;;26.03;4.87;;;11.70;99.90;;;;;;5069513;28;20397;-74
2022/02/17 11:14:00;;;;;;;21.03;4.40;;;11.40;99.90;;;;;;5071079;28;20431;-74
2022/02/17 11:16:47;;;;;;;17.63;3.83;;;11.10;99.90;;;;;;5063807;28;20866;-74
2022/02/17 11:19:33;;;;;;;16.23;3.90;;;10.90;99.90;;;;;;5065764;28;20436;-74
2022/02/17 11:22:20;;;;;;;20.63;4.80;;;10.80;99.90;;;;;;5069216;28;20919;-75
2022/02/17 11:25:06;;;;;;;21.40;3.80;;;10.80;99.90;;;;;;5067685;28;20424;-75
2022/02/17 11:27:59;;;;;;;26.13;3.80;;;10.90;99.90;;;;;;5065359;28;20948;-75
2022/02/17 11:30:59;;;;;;;18.70;3.90;;;10.90;99.90;;;;;;5071305;28;20507;-74
2022/02/17 11:33:56;;;;;;;24.43;4.00;;;10.90;99.90;;;;;;5064599;28;20404;-75
2022/02/17 11:36:41;;;;;;;17.40;3.67;;;10.90;99.90;;;;;;5063079;28;20544;-74
2022/02/17 11:39:58;;;;;;;21.07;4.80;;;11.10;99.90;;;;;;5064061;28;20466;-74
2022/02/17 11:42:45;;;;;;;28.37;4.80;;;11.30;99.90;;;;;;5063477;28;20430;-74
2022/02/17 11:45:45;;;;;;;14.73;3.70;;;11.40;99.90;;;;;;5064224;28;20554;-74
2022/02/17 11:48:37;;;;;;;16.50;3.67;;;11.50;99.90;;;;;;5070746;28;20455;-74
2022/02/17 11:51:24;;;;;;;15.80;3.17;;;11.40;99.90;;;;;;5068876;28;20458;-74
2022/02/17 11:54:19;;;;;;;11.37;2.53;;;11.30;99.90;;;;;;5068541;28;20443;-75
2022/02/17 11:57:05;;;;;;;7.50;2.10;;;11.40;99.90;;;;;;5066350;28;20457;-74
2022/02/17 11:59:51;;;;;;;12.97;4.03;;;11.50;99.90;;;;;;5064359;28;20444;-75
2022/02/17 12:02:44;;;;;;;16.13;3.63;;;11.70;99.90;;;;;;5071723;28;20793;-75
2022/02/17 12:05:31;;;;;;;20.30;4.33;;;12.00;99.90;;;;;;5071315;28;20447;-74
2022/02/17 12:08:24;;;;;;;21.83;3.83;;;12.20;99.90;;;;;;5062717;28;20418;-74
2022/02/17 12:11:27;;;;;;;18.13;3.70;;;12.50;99.90;;;;;;5070519;28;20936;-74
2022/02/17 12:14:13;;;;;;;17.70;4.53;;;12.60;99.90;;;;;;5073270;28;20496;-74
2022/02/17 12:17:02;;;;;;;17.43;3.37;;;12.70;99.90;;;;;;5071943;28;20438;-74
2022/02/17 12:19:48;;;;;;;11.80;2.90;;;12.80;99.90;;;;;;5067674;28;20462;-74
2022/02/17 12:22:35;;;;;;;18.90;4.13;;;12.80;95.70;;;;;;5073232;28;20465;-74
2022/02/17 12:25:26;;;;;;;15.73;3.70;;;13.00;93.00;;;;;;5071544;28;20816;-74
2022/02/17 12:28:13;;;;;;;16.60;4.30;;;13.20;91.30;;;;;;5072979;28;20489;-75
2022/02/17 12:30:59;;;;;;;21.17;3.43;;;13.20;90.00;;;;;;5063541;28;20415;-75
2022/02/17 12:33:45;;;;;;;21.53;4.03;;;13.20;89.70;;;;;;5068102;28;21032;-73
2022/02/17 12:36:36;;;;;;;13.53;2.93;;;13.20;86.70;;;;;;5072288;28;20421;-75
2022/02/17 12:39:25;;;;;;;18.90;3.30;;;13.30;85.10;;;;;;5072882;28;20979;-75
2022/02/17 12:42:11;;;;;;;20.97;4.03;;;13.40;84.40;;;;;;5071162;28;20451;-75
2022/02/17 12:44:57;;;;;;;16.13;3.70;;;13.40;79.80;;;;;;5068280;28;20450;-73
2022/02/17 12:47:44;;;;;;;18.90;3.13;;;13.40;80.00;;;;;;5069184;28;20531;-73
2022/02/17 12:50:30;;;;;;;20.20;4.03;;;13.40;81.00;;;;;;5061634;28;20430;-73
2022/02/17 12:53:15;;;;;;;19.37;5.20;;;13.40;79.60;;;;;;5065999;28;21227;-73
2022/02/17 12:56:03;;;;;;;23.80;5.87;;;13.30;79.00;;;;;;5069257;28;20479;-73
2022/02/17 12:58:49;;;;;;;10.00;3.10;;;13.20;73.80;;;;;;5066038;28;20553;-73
2022/02/17 13:01:35;;;;;;;12.20;3.20;;;13.10;73.30;;;;;;5071856;28;20580;-73
2022/02/17 13:04:20;;;;;;;5.00;1.87;;;12.90;73.50;;;;;;5067580;28;20991;-72
2022/02/17 13:07:08;;;;;;;14.17;2.60;;;12.90;75.20;;;;;;5070125;28;20413;-72
2022/02/17 13:09:55;;;;;;;18.93;3.10;;;13.10;74.80;;;;;;5064957;28;20541;-73
2022/02/17 13:12:56;;;;;;;10.93;3.00;;;13.10;77.30;;;;;;5067686;28;20439;-72
2022/02/17 13:15:43;;;;;;;23.53;4.50;;;13.30;78.40;;;;;;5065333;28;20437;-71
2022/02/17 13:18:28;;;;;;;13.33;2.77;;;13.40;81.10;;;;;;5065181;28;20592;-72
2022/02/17 13:21:18;;;;;;;17.80;3.57;;;13.70;79.50;;;;;;5069918;28;20412;-71
2022/02/17 13:24:10;;;;;;;15.73;2.60;;;13.90;75.90;;;;;;5107334;22;20488;-85
2022/02/17 13:27:07;;;;;;;12.73;3.10;;;13.90;74.60;;;;;;5085897;28;20984;-85
2022/02/17 13:29:57;;;;;;;13.30;2.97;;;14.00;74.30;;;;;;5080210;28;20949;-85
2022/02/17 13:32:54;;;;;;;13.63;2.60;;;13.80;74.30;;;;;;5082615;28;20468;-85
2022/02/17 13:35:48;;;;;;;8.83;2.40;;;13.30;78.30;;;;;;5082017;28;20797;-86
2022/02/17 13:38:33;;;;;;;10.70;3.70;;;13.40;81.80;;;;;;5079798;28;20451;-85
2022/02/17 13:41:19;;;;;;;11.97;3.00;;;13.60;80.70;;;;;;5082802;28;20417;-85
2022/02/17 13:44:06;;;;;;;7.50;2.33;;;13.80;81.30;;;;;;5076904;28;20978;-84
2022/02/17 13:46:54;;;;;;;11.43;2.67;;;13.80;79.40;;;;;;5087753;28;20452;-85
2022/02/17 13:49:42;;;;;;;25.87;4.00;;;13.90;81.70;;;;;;5079612;28;20443;-85
2022/02/17 13:52:30;;;;;;;15.53;2.87;;;13.80;80.60;;;;;;5083235;28;20430;-84
2022/02/17 13:55:19;;;;;;;10.07;2.40;;;13.80;81.30;;;;;;5085004;28;21048;-85
2022/02/17 13:58:06;;;;;;;13.20;2.67;;;13.90;78.90;;;;;;5081740;28;20474;-85
2022/02/17 14:00:54;;;;;;;12.53;2.57;;;13.70;79.80;;;;;;5078827;28;20469;-85
2022/02/17 14:03:47;;;;;;;34.10;12.10;;;13.60;81.30;;;;;;5079761;28;20524;-85
2022/02/17 14:06:33;;;;;;;20.10;6.73;;;13.50;82.00;;;;;;5088495;28;20453;-85
2022/02/17 14:09:18;;;;;;;16.83;8.27;;;13.30;81.10;;;;;;5085114;28;20990;-85
2022/02/17 14:12:05;;;;;;;7.80;3.67;;;13.20;82.00;;;;;;5086944;28;20958;-84
2022/02/17 14:14:50;;;;;;;7.50;2.10;;;13.10;87.60;;;;;;5086832;28;20563;-83
2022/02/17 14:17:36;;;;;;;12.87;2.70;;;13.00;85.20;;;;;;5082314;28;20441;-85
2022/02/17 14:20:23;;;;;;;14.13;2.53;;;12.80;87.00;;;;;;5081459;28;20523;-86
2022/02/17 14:23:08;;;;;;;10.47;2.50;;;12.70;88.30;;;;;;5081153;28;20984;-87
2022/02/17 14:25:56;;;;;;;9.83;2.73;;;12.80;90.50;;;;;;5084779;28;20462;-88